sensor_id;sensor_type;location;lat;lon;timestamp;temperature;humidity
42135;DHT22;28312;43.460;11.810;2023-02-08T00:00:47;-3273.50;44.50
42135;DHT22;28312;43.460;11.810;2023-02-08T00:04:51;-3273.50;44.60
42135;DHT22;28312;43.460;11.810;2023-02-08T00:08:55;-3273.40;44.70
42135;DHT22;28312;43.460;11.810;2023-02-08T00:12:59;-3273.30;44.70
42135;DHT22;28312;43.460;11.810;2023-02-08T00:17:02;-3273.20;44.80
42135;DHT22;28312;43.460;11.810;2023-02-08T00:21:10;-3273.20;44.80
42135;DHT22;28312;43.460;11.810;2023-02-08T00:25:14;-3273.20;44.90
42135;DHT22;28312;43.460;11.810;2023-02-08T00:29:17;-3273.10;45.00
42135;DHT22;28312;43.460;11.810;2023-02-08T00:33:20;-3273.20;44.90
42135;DHT22;28312;43.460;11.810;2023-02-08T00:37:24;-3273.10;45.00
42135;DHT22;28312;43.460;11.810;2023-02-08T00:41:28;-3273.10;45.00
42135;DHT22;28312;43.460;11.810;2023-02-08T00:45:33;-3273.10;45.10
42135;DHT22;28312;43.460;11.810;2023-02-08T00:49:36;-3273.00;45.10
42135;DHT22;28312;43.460;11.810;2023-02-08T00:53:42;-3273.10;45.20
42135;DHT22;28312;43.460;11.810;2023-02-08T00:57:45;-3273.00;45.20
42135;DHT22;28312;43.460;11.810;2023-02-08T01:01:49;-3273.10;45.30
42135;DHT22;28312;43.460;11.810;2023-02-08T01:05:52;-3273.20;45.40
42135;DHT22;28312;43.460;11.810;2023-02-08T01:09:56;-3273.20;45.40
42135;DHT22;28312;43.460;11.810;2023-02-08T01:13:59;-3273.40;45.60
42135;DHT22;28312;43.460;11.810;2023-02-08T01:18:03;-3273.60;45.60
42135;DHT22;28312;43.460;11.810;2023-02-08T01:22:06;-3273.70;45.60
42135;DHT22;28312;43.460;11.810;2023-02-08T01:26:11;-3273.80;45.60
42135;DHT22;28312;43.460;11.810;2023-02-08T01:30:15;-3273.90;45.80
42135;DHT22;28312;43.460;11.810;2023-02-08T01:34:19;-3274.00;45.80
42135;DHT22;28312;43.460;11.810;2023-02-08T01:38:23;-3274.20;46.00
42135;DHT22;28312;43.460;11.810;2023-02-08T01:42:28;-3274.60;46.00
42135;DHT22;28312;43.460;11.810;2023-02-08T01:46:34;-3274.70;45.80
42135;DHT22;28312;43.460;11.810;2023-02-08T01:50:51;-3274.80;45.70
42135;DHT22;28312;43.460;11.810;2023-02-08T01:55:04;-3274.70;45.60
42135;DHT22;28312;43.460;11.810;2023-02-08T01:59:13;-3274.80;45.80
42135;DHT22;28312;43.460;11.810;2023-02-08T02:03:19;-3274.80;46.00
42135;DHT22;28312;43.460;11.810;2023-02-08T02:07:27;-3274.70;46.00
42135;DHT22;28312;43.460;11.810;2023-02-08T02:11:34;-3274.70;45.90
42135;DHT22;28312;43.460;11.810;2023-02-08T02:15:37;-3274.50;45.80
42135;DHT22;28312;43.460;11.810;2023-02-08T02:19:51;-3274.20;45.80
42135;DHT22;28312;43.460;11.810;2023-02-08T02:41:58;-3273.50;46.00
42135;DHT22;28312;43.460;11.810;2023-02-08T02:50:50;-3273.20;46.10
42135;DHT22;28312;43.460;11.810;2023-02-08T02:54:58;-3273.10;46.10
42135;DHT22;28312;43.460;11.810;2023-02-08T02:59:07;-3272.90;46.20
42135;DHT22;28312;43.460;11.810;2023-02-08T03:03:23;-3272.90;46.20
42135;DHT22;28312;43.460;11.810;2023-02-08T03:12:01;-3272.90;46.30
42135;DHT22;28312;43.460;11.810;2023-02-08T03:16:28;-3272.90;46.40
42135;DHT22;28312;43.460;11.810;2023-02-08T03:20:41;-3272.70;46.40
42135;DHT22;28312;43.460;11.810;2023-02-08T03:25:05;-3272.70;46.40
42135;DHT22;28312;43.460;11.810;2023-02-08T03:29:34;-3272.60;46.60
42135;DHT22;28312;43.460;11.810;2023-02-08T03:33:53;-3272.50;46.60
42135;DHT22;28312;43.460;11.810;2023-02-08T03:42:10;-3272.40;46.70
42135;DHT22;28312;43.460;11.810;2023-02-08T03:46:32;-3272.40;46.70
42135;DHT22;28312;43.460;11.810;2023-02-08T03:50:38;-3272.40;46.70
42135;DHT22;28312;43.460;11.810;2023-02-08T03:55:16;-3272.40;46.70
42135;DHT22;28312;43.460;11.810;2023-02-08T03:59:31;-3272.40;46.80
42135;DHT22;28312;43.460;11.810;2023-02-08T04:03:37;-3272.40;46.70
42135;DHT22;28312;43.460;11.810;2023-02-08T04:07:40;-3272.40;46.70
42135;DHT22;28312;43.460;11.810;2023-02-08T04:11:44;-3272.40;46.70
42135;DHT22;28312;43.460;11.810;2023-02-08T04:15:48;-3272.30;46.70
42135;DHT22;28312;43.460;11.810;2023-02-08T04:19:51;-3272.30;46.70
42135;DHT22;28312;43.460;11.810;2023-02-08T04:23:55;-3272.30;46.70
42135;DHT22;28312;43.460;11.810;2023-02-08T04:27:58;-3272.30;46.70
42135;DHT22;28312;43.460;11.810;2023-02-08T04:32:02;-3272.20;46.80
42135;DHT22;28312;43.460;11.810;2023-02-08T04:36:07;-3272.10;47.00
42135;DHT22;28312;43.460;11.810;2023-02-08T04:40:10;-3272.10;46.90
42135;DHT22;28312;43.460;11.810;2023-02-08T04:44:15;-3272.00;47.00
42135;DHT22;28312;43.460;11.810;2023-02-08T04:48:21;-3272.00;47.10
42135;DHT22;28312;43.460;11.810;2023-02-08T04:52:24;-3272.10;47.10
42135;DHT22;28312;43.460;11.810;2023-02-08T04:56:28;-3272.10;47.10
42135;DHT22;28312;43.460;11.810;2023-02-08T05:00:31;-3272.10;47.00
42135;DHT22;28312;43.460;11.810;2023-02-08T05:04:35;-3272.00;47.10
42135;DHT22;28312;43.460;11.810;2023-02-08T05:08:38;-3272.00;47.10
42135;DHT22;28312;43.460;11.810;2023-02-08T05:12:49;-3271.90;47.10
42135;DHT22;28312;43.460;11.810;2023-02-08T05:16:52;-3271.90;47.10
42135;DHT22;28312;43.460;11.810;2023-02-08T05:20:58;-3271.80;47.20
42135;DHT22;28312;43.460;11.810;2023-02-08T05:25:01;-3271.80;47.30
42135;DHT22;28312;43.460;11.810;2023-02-08T05:29:05;-3271.90;47.30
42135;DHT22;28312;43.460;11.810;2023-02-08T05:33:08;-3271.90;47.30
42135;DHT22;28312;43.460;11.810;2023-02-08T05:37:11;-3271.90;47.30
42135;DHT22;28312;43.460;11.810;2023-02-08T05:41:16;-3271.90;47.30
42135;DHT22;28312;43.460;11.810;2023-02-08T05:45:19;-3271.90;47.30
42135;DHT22;28312;43.460;11.810;2023-02-08T05:49:24;-3271.80;47.40
42135;DHT22;28312;43.460;11.810;2023-02-08T05:53:28;-3271.80;47.40
42135;DHT22;28312;43.460;11.810;2023-02-08T05:57:31;-3271.80;47.40
42135;DHT22;28312;43.460;11.810;2023-02-08T06:01:38;-3271.70;47.30
42135;DHT22;28312;43.460;11.810;2023-02-08T06:05:41;-3271.70;47.40
42135;DHT22;28312;43.460;11.810;2023-02-08T06:09:44;-3271.60;47.40
42135;DHT22;28312;43.460;11.810;2023-02-08T06:13:50;-3271.60;47.50
42135;DHT22;28312;43.460;11.810;2023-02-08T06:17:55;-3271.60;47.50
42135;DHT22;28312;43.460;11.810;2023-02-08T06:21:58;-3271.50;47.50
42135;DHT22;28312;43.460;11.810;2023-02-08T06:26:03;-3271.50;47.60
42135;DHT22;28312;43.460;11.810;2023-02-08T06:30:07;-3271.50;47.60
42135;DHT22;28312;43.460;11.810;2023-02-08T06:34:10;-3271.50;47.60
42135;DHT22;28312;43.460;11.810;2023-02-08T06:38:14;-3271.50;47.70
42135;DHT22;28312;43.460;11.810;2023-02-08T06:42:17;-3271.60;47.80
42135;DHT22;28312;43.460;11.810;2023-02-08T06:46:20;-3271.60;47.80
42135;DHT22;28312;43.460;11.810;2023-02-08T06:50:28;-3271.70;47.80
42135;DHT22;28312;43.460;11.810;2023-02-08T06:54:31;-3271.80;47.90
42135;DHT22;28312;43.460;11.810;2023-02-08T06:58:35;-3271.90;48.00
42135;DHT22;28312;43.460;11.810;2023-02-08T07:02:38;-3272.00;48.10
42135;DHT22;28312;43.460;11.810;2023-02-08T07:06:41;-3272.20;48.50
42135;DHT22;28312;43.460;11.810;2023-02-08T07:10:45;-3273.00;50.50
42135;DHT22;28312;43.460;11.810;2023-02-08T07:14:48;-3274.30;51.20
42135;DHT22;28312;43.460;11.810;2023-02-08T07:18:52;-3275.70;50.40
42135;DHT22;28312;43.460;11.810;2023-02-08T07:22:55;0.00;50.00
42135;DHT22;28312;43.460;11.810;2023-02-08T07:26:58;1.00;49.30
42135;DHT22;28312;43.460;11.810;2023-02-08T07:31:21;1.90;48.90
42135;DHT22;28312;43.460;11.810;2023-02-08T07:35:24;2.80;48.90
42135;DHT22;28312;43.460;11.810;2023-02-08T07:39:27;3.80;48.70
42135;DHT22;28312;43.460;11.810;2023-02-08T07:43:34;4.90;48.40
42135;DHT22;28312;43.460;11.810;2023-02-08T07:47:38;6.00;47.90
42135;DHT22;28312;43.460;11.810;2023-02-08T07:51:43;7.00;47.60
42135;DHT22;28312;43.460;11.810;2023-02-08T07:55:46;8.20;47.20
42135;DHT22;28312;43.460;11.810;2023-02-08T07:59:52;9.30;46.80
42135;DHT22;28312;43.460;11.810;2023-02-08T08:03:58;10.20;46.20
42135;DHT22;28312;43.460;11.810;2023-02-08T08:08:02;11.10;45.90
42135;DHT22;28312;43.460;11.810;2023-02-08T08:12:05;11.90;45.60
42135;DHT22;28312;43.460;11.810;2023-02-08T08:16:09;12.80;45.30
42135;DHT22;28312;43.460;11.810;2023-02-08T08:20:12;13.40;44.50
42135;DHT22;28312;43.460;11.810;2023-02-08T08:24:16;13.90;44.30
42135;DHT22;28312;43.460;11.810;2023-02-08T08:28:19;14.50;43.80
42135;DHT22;28312;43.460;11.810;2023-02-08T08:32:22;14.80;43.70
42135;DHT22;28312;43.460;11.810;2023-02-08T08:36:26;15.20;43.40
42135;DHT22;28312;43.460;11.810;2023-02-08T08:40:29;15.60;42.90
42135;DHT22;28312;43.460;11.810;2023-02-08T08:44:32;15.90;42.80
42135;DHT22;28312;43.460;11.810;2023-02-08T08:48:36;16.20;42.60
42135;DHT22;28312;43.460;11.810;2023-02-08T08:52:41;16.30;41.60
42135;DHT22;28312;43.460;11.810;2023-02-08T08:56:45;16.20;41.80
42135;DHT22;28312;43.460;11.810;2023-02-08T09:00:48;16.00;40.70
42135;DHT22;28312;43.460;11.810;2023-02-08T09:04:52;15.60;41.20
42135;DHT22;28312;43.460;11.810;2023-02-08T09:08:55;15.50;41.20
42135;DHT22;28312;43.460;11.810;2023-02-08T09:12:59;15.40;40.10
42135;DHT22;28312;43.460;11.810;2023-02-08T09:17:02;14.70;39.60
42135;DHT22;28312;43.460;11.810;2023-02-08T09:21:12;14.20;40.20
42135;DHT22;28312;43.460;11.810;2023-02-08T09:25:16;14.20;41.00
42135;DHT22;28312;43.460;11.810;2023-02-08T09:29:19;14.40;40.20
42135;DHT22;28312;43.460;11.810;2023-02-08T09:33:25;14.40;40.30
42135;DHT22;28312;43.460;11.810;2023-02-08T09:37:28;14.20;39.40
42135;DHT22;28312;43.460;11.810;2023-02-08T09:45:39;13.90;40.20
42135;DHT22;28312;43.460;11.810;2023-02-08T09:54:34;14.60;39.70
42135;DHT22;28312;43.460;11.810;2023-02-08T09:59:05;14.60;38.90
42135;DHT22;28312;43.460;11.810;2023-02-08T10:03:30;14.50;39.40
42135;DHT22;28312;43.460;11.810;2023-02-08T10:07:35;14.90;39.10
42135;DHT22;28312;43.460;11.810;2023-02-08T10:20:38;15.30;38.50
42135;DHT22;28312;43.460;11.810;2023-02-08T10:24:59;15.20;37.40
42135;DHT22;28312;43.460;11.810;2023-02-08T10:33:25;14.30;37.00
42135;DHT22;28312;43.460;11.810;2023-02-08T10:37:37;14.10;36.80
42135;DHT22;28312;43.460;11.810;2023-02-08T10:41:45;13.90;37.10
42135;DHT22;28312;43.460;11.810;2023-02-08T10:50:19;13.90;36.80
42135;DHT22;28312;43.460;11.810;2023-02-08T10:54:29;13.60;36.50
42135;DHT22;28312;43.460;11.810;2023-02-08T10:58:33;13.70;37.40
42135;DHT22;28312;43.460;11.810;2023-02-08T11:02:41;14.20;36.80
42135;DHT22;28312;43.460;11.810;2023-02-08T11:06:47;14.20;37.10
42135;DHT22;28312;43.460;11.810;2023-02-08T11:11:05;14.60;37.20
42135;DHT22;28312;43.460;11.810;2023-02-08T11:15:25;14.70;36.20
42135;DHT22;28312;43.460;11.810;2023-02-08T11:19:37;13.70;35.60
42135;DHT22;28312;43.460;11.810;2023-02-08T11:23:52;12.60;36.10
42135;DHT22;28312;43.460;11.810;2023-02-08T11:27:55;11.60;36.40
42135;DHT22;28312;43.460;11.810;2023-02-08T11:32:17;10.70;37.30
42135;DHT22;28312;43.460;11.810;2023-02-08T11:36:21;10.20;39.30
42135;DHT22;28312;43.460;11.810;2023-02-08T11:40:34;10.60;41.40
42135;DHT22;28312;43.460;11.810;2023-02-08T11:44:42;11.20;40.90
42135;DHT22;28312;43.460;11.810;2023-02-08T11:48:53;11.30;40.20
42135;DHT22;28312;43.460;11.810;2023-02-08T11:53:02;11.80;41.50
42135;DHT22;28312;43.460;11.810;2023-02-08T12:01:26;13.50;40.80
42135;DHT22;28312;43.460;11.810;2023-02-08T12:06:04;14.20;40.40
42135;DHT22;28312;43.460;11.810;2023-02-08T12:10:18;14.80;39.60
42135;DHT22;28312;43.460;11.810;2023-02-08T12:14:51;15.00;38.60
42135;DHT22;28312;43.460;11.810;2023-02-08T12:33:20;10.70;38.50
42135;DHT22;28312;43.460;11.810;2023-02-08T12:54:57;8.60;40.80
42135;DHT22;28312;43.460;11.810;2023-02-08T12:59:01;8.30;41.00
42135;DHT22;28312;43.460;11.810;2023-02-08T13:07:42;7.80;42.20
42135;DHT22;28312;43.460;11.810;2023-02-08T13:12:12;7.80;42.70
42135;DHT22;28312;43.460;11.810;2023-02-08T13:16:27;7.90;43.20
42135;DHT22;28312;43.460;11.810;2023-02-08T13:24:48;8.00;43.30
42135;DHT22;28312;43.460;11.810;2023-02-08T13:29:16;8.00;43.50
42135;DHT22;28312;43.460;11.810;2023-02-08T13:33:29;8.00;43.50
42135;DHT22;28312;43.460;11.810;2023-02-08T13:37:34;7.90;43.60
42135;DHT22;28312;43.460;11.810;2023-02-08T13:41:38;7.80;43.70
42135;DHT22;28312;43.460;11.810;2023-02-08T13:45:58;7.70;43.80
42135;DHT22;28312;43.460;11.810;2023-02-08T13:50:04;7.50;44.40
42135;DHT22;28312;43.460;11.810;2023-02-08T13:54:12;7.30;44.70
42135;DHT22;28312;43.460;11.810;2023-02-08T14:02:22;7.20;45.50
42135;DHT22;28312;43.460;11.810;2023-02-08T14:06:28;7.20;45.60
42135;DHT22;28312;43.460;11.810;2023-02-08T14:10:39;7.20;46.10
42135;DHT22;28312;43.460;11.810;2023-02-08T14:15:25;7.20;46.00
42135;DHT22;28312;43.460;11.810;2023-02-08T14:19:27;7.00;46.20
42135;DHT22;28312;43.460;11.810;2023-02-08T14:23:35;6.80;46.10
42135;DHT22;28312;43.460;11.810;2023-02-08T14:27:49;6.80;46.10
42135;DHT22;28312;43.460;11.810;2023-02-08T14:31:54;6.70;46.10
42135;DHT22;28312;43.460;11.810;2023-02-08T14:36:01;6.60;46.60
42135;DHT22;28312;43.460;11.810;2023-02-08T14:48:48;7.00;48.10
42135;DHT22;28312;43.460;11.810;2023-02-08T14:57:35;6.90;47.90
42135;DHT22;28312;43.460;11.810;2023-02-08T15:01:45;6.80;47.90
42135;DHT22;28312;43.460;11.810;2023-02-08T15:10:04;6.70;47.60
42135;DHT22;28312;43.460;11.810;2023-02-08T15:14:17;6.50;47.80
42135;DHT22;28312;43.460;11.810;2023-02-08T15:18:28;6.30;48.00
42135;DHT22;28312;43.460;11.810;2023-02-08T15:22:35;6.20;48.10
42135;DHT22;28312;43.460;11.810;2023-02-08T15:26:47;5.90;48.10
42135;DHT22;28312;43.460;11.810;2023-02-08T15:30:58;5.80;48.30
42135;DHT22;28312;43.460;11.810;2023-02-08T15:35:03;5.70;48.60
42135;DHT22;28312;43.460;11.810;2023-02-08T15:39:30;5.60;48.80
42135;DHT22;28312;43.460;11.810;2023-02-08T15:43:37;5.40;49.10
42135;DHT22;28312;43.460;11.810;2023-02-08T15:47:40;5.30;49.00
42135;DHT22;28312;43.460;11.810;2023-02-08T15:51:44;5.20;49.30
42135;DHT22;28312;43.460;11.810;2023-02-08T15:56:00;5.10;49.40
42135;DHT22;28312;43.460;11.810;2023-02-08T16:00:20;4.90;49.40
42135;DHT22;28312;43.460;11.810;2023-02-08T16:04:25;4.80;49.60
42135;DHT22;28312;43.460;11.810;2023-02-08T16:08:36;4.70;49.50
42135;DHT22;28312;43.460;11.810;2023-02-08T16:12:41;4.60;49.50
42135;DHT22;28312;43.460;11.810;2023-02-08T16:16:54;4.50;49.50
42135;DHT22;28312;43.460;11.810;2023-02-08T16:21:00;4.40;50.20
42135;DHT22;28312;43.460;11.810;2023-02-08T16:25:31;4.30;50.20
42135;DHT22;28312;43.460;11.810;2023-02-08T16:29:37;4.20;50.60
42135;DHT22;28312;43.460;11.810;2023-02-08T16:33:42;4.10;50.70
42135;DHT22;28312;43.460;11.810;2023-02-08T16:37:53;4.00;50.70
42135;DHT22;28312;43.460;11.810;2023-02-08T16:42:00;3.90;50.70
42135;DHT22;28312;43.460;11.810;2023-02-08T16:46:20;3.80;50.60
42135;DHT22;28312;43.460;11.810;2023-02-08T16:50:26;3.70;51.00
42135;DHT22;28312;43.460;11.810;2023-02-08T16:54:29;3.70;51.40
42135;DHT22;28312;43.460;11.810;2023-02-08T16:58:39;3.60;51.10
42135;DHT22;28312;43.460;11.810;2023-02-08T17:02:43;3.50;51.10
42135;DHT22;28312;43.460;11.810;2023-02-08T17:06:46;3.30;51.30
42135;DHT22;28312;43.460;11.810;2023-02-08T17:10:50;3.30;51.20
42135;DHT22;28312;43.460;11.810;2023-02-08T17:14:57;3.20;51.40
42135;DHT22;28312;43.460;11.810;2023-02-08T17:19:02;3.20;51.40
42135;DHT22;28312;43.460;11.810;2023-02-08T17:23:06;3.20;51.30
42135;DHT22;28312;43.460;11.810;2023-02-08T17:27:12;3.10;51.20
42135;DHT22;28312;43.460;11.810;2023-02-08T17:31:16;3.10;51.40
42135;DHT22;28312;43.460;11.810;2023-02-08T17:35:25;3.10;51.30
42135;DHT22;28312;43.460;11.810;2023-02-08T17:39:32;3.10;51.30
42135;DHT22;28312;43.460;11.810;2023-02-08T17:43:37;3.00;51.30
42135;DHT22;28312;43.460;11.810;2023-02-08T17:47:40;3.00;51.30
42135;DHT22;28312;43.460;11.810;2023-02-08T17:51:44;2.90;51.40
42135;DHT22;28312;43.460;11.810;2023-02-08T17:55:48;2.90;51.40
42135;DHT22;28312;43.460;11.810;2023-02-08T17:59:51;2.80;51.50
42135;DHT22;28312;43.460;11.810;2023-02-08T18:03:58;2.80;51.60
42135;DHT22;28312;43.460;11.810;2023-02-08T18:08:01;2.80;51.80
42135;DHT22;28312;43.460;11.810;2023-02-08T18:12:09;2.80;52.00
42135;DHT22;28312;43.460;11.810;2023-02-08T18:16:21;2.80;52.10
42135;DHT22;28312;43.460;11.810;2023-02-08T18:20:24;2.80;52.10
42135;DHT22;28312;43.460;11.810;2023-02-08T18:24:29;2.70;51.80
42135;DHT22;28312;43.460;11.810;2023-02-08T18:28:33;2.70;52.20
42135;DHT22;28312;43.460;11.810;2023-02-08T18:32:38;2.70;52.20
42135;DHT22;28312;43.460;11.810;2023-02-08T18:36:42;2.70;52.20
42135;DHT22;28312;43.460;11.810;2023-02-08T18:40:46;2.60;52.00
42135;DHT22;28312;43.460;11.810;2023-02-08T18:44:50;2.60;52.10
42135;DHT22;28312;43.460;11.810;2023-02-08T18:48:55;2.50;52.30
42135;DHT22;28312;43.460;11.810;2023-02-08T18:53:00;2.50;52.30
42135;DHT22;28312;43.460;11.810;2023-02-08T18:57:05;2.50;52.20
42135;DHT22;28312;43.460;11.810;2023-02-08T19:01:14;2.50;52.10
42135;DHT22;28312;43.460;11.810;2023-02-08T19:05:20;2.40;52.20
42135;DHT22;28312;43.460;11.810;2023-02-08T19:09:26;2.40;52.10
42135;DHT22;28312;43.460;11.810;2023-02-08T19:13:30;2.40;52.20
42135;DHT22;28312;43.460;11.810;2023-02-08T19:17:37;2.40;52.10
42135;DHT22;28312;43.460;11.810;2023-02-08T19:21:44;2.40;52.10
42135;DHT22;28312;43.460;11.810;2023-02-08T19:25:49;2.30;52.00
42135;DHT22;28312;43.460;11.810;2023-02-08T19:29:55;2.30;51.90
42135;DHT22;28312;43.460;11.810;2023-02-08T19:34:03;2.30;52.00
42135;DHT22;28312;43.460;11.810;2023-02-08T19:38:08;2.20;51.80
42135;DHT22;28312;43.460;11.810;2023-02-08T19:42:20;2.30;51.80
42135;DHT22;28312;43.460;11.810;2023-02-08T19:46:25;2.20;51.70
42135;DHT22;28312;43.460;11.810;2023-02-08T19:50:30;2.10;51.60
42135;DHT22;28312;43.460;11.810;2023-02-08T19:54:33;2.00;51.50
42135;DHT22;28312;43.460;11.810;2023-02-08T19:58:36;2.00;51.50
42135;DHT22;28312;43.460;11.810;2023-02-08T20:02:39;1.90;51.50
42135;DHT22;28312;43.460;11.810;2023-02-08T20:06:43;1.90;51.40
42135;DHT22;28312;43.460;11.810;2023-02-08T20:10:47;1.80;51.30
42135;DHT22;28312;43.460;11.810;2023-02-08T20:14:53;1.80;51.20
42135;DHT22;28312;43.460;11.810;2023-02-08T20:18:56;1.70;51.20
42135;DHT22;28312;43.460;11.810;2023-02-08T20:23:00;1.70;51.30
42135;DHT22;28312;43.460;11.810;2023-02-08T20:27:10;1.60;51.20
42135;DHT22;28312;43.460;11.810;2023-02-08T20:31:17;1.50;51.30
42135;DHT22;28312;43.460;11.810;2023-02-08T20:35:21;1.40;51.20
42135;DHT22;28312;43.460;11.810;2023-02-08T20:39:25;1.30;51.20
42135;DHT22;28312;43.460;11.810;2023-02-08T20:43:29;1.30;51.20
42135;DHT22;28312;43.460;11.810;2023-02-08T20:47:37;1.20;51.20
42135;DHT22;28312;43.460;11.810;2023-02-08T20:51:54;1.20;51.30
42135;DHT22;28312;43.460;11.810;2023-02-08T20:55:58;1.10;51.40
42135;DHT22;28312;43.460;11.810;2023-02-08T21:00:02;1.10;51.60
42135;DHT22;28312;43.460;11.810;2023-02-08T21:04:06;1.10;51.50
42135;DHT22;28312;43.460;11.810;2023-02-08T21:08:09;1.00;51.30
42135;DHT22;28312;43.460;11.810;2023-02-08T21:12:12;0.90;51.10
42135;DHT22;28312;43.460;11.810;2023-02-08T21:16:18;0.70;51.10
42135;DHT22;28312;43.460;11.810;2023-02-08T21:20:22;0.70;51.10
42135;DHT22;28312;43.460;11.810;2023-02-08T21:24:26;0.60;51.10
42135;DHT22;28312;43.460;11.810;2023-02-08T21:28:30;0.60;51.10
42135;DHT22;28312;43.460;11.810;2023-02-08T21:32:33;0.50;51.10
42135;DHT22;28312;43.460;11.810;2023-02-08T21:36:37;0.60;51.10
42135;DHT22;28312;43.460;11.810;2023-02-08T21:40:40;0.60;51.10
42135;DHT22;28312;43.460;11.810;2023-02-08T21:44:43;0.60;51.00
42135;DHT22;28312;43.460;11.810;2023-02-08T21:48:48;0.60;50.90
42135;DHT22;28312;43.460;11.810;2023-02-08T21:53:12;0.50;50.80
42135;DHT22;28312;43.460;11.810;2023-02-08T21:57:37;0.50;50.90
42135;DHT22;28312;43.460;11.810;2023-02-08T22:01:42;0.50;50.80
42135;DHT22;28312;43.460;11.810;2023-02-08T22:05:46;0.50;51.10
42135;DHT22;28312;43.460;11.810;2023-02-08T22:10:09;0.50;50.90
42135;DHT22;28312;43.460;11.810;2023-02-08T22:14:12;0.50;50.80
42135;DHT22;28312;43.460;11.810;2023-02-08T22:18:18;0.40;50.80
42135;DHT22;28312;43.460;11.810;2023-02-08T22:22:22;0.30;50.70
42135;DHT22;28312;43.460;11.810;2023-02-08T22:26:26;0.20;50.60
42135;DHT22;28312;43.460;11.810;2023-02-08T22:30:29;0.00;50.50
42135;DHT22;28312;43.460;11.810;2023-02-08T22:34:33;-3276.70;50.60
42135;DHT22;28312;43.460;11.810;2023-02-08T22:38:37;-3276.60;50.60
42135;DHT22;28312;43.460;11.810;2023-02-08T22:42:40;-3276.40;50.60
42135;DHT22;28312;43.460;11.810;2023-02-08T22:46:44;-3276.20;50.70
42135;DHT22;28312;43.460;11.810;2023-02-08T22:50:48;-3276.10;50.70
42135;DHT22;28312;43.460;11.810;2023-02-08T22:54:52;-3276.00;50.70
42135;DHT22;28312;43.460;11.810;2023-02-08T22:58:57;-3275.90;50.70
42135;DHT22;28312;43.460;11.810;2023-02-08T23:03:00;-3275.80;50.70
42135;DHT22;28312;43.460;11.810;2023-02-08T23:07:04;-3275.80;50.70
42135;DHT22;28312;43.460;11.810;2023-02-08T23:11:08;-3275.70;50.70
42135;DHT22;28312;43.460;11.810;2023-02-08T23:15:12;-3275.50;51.00
42135;DHT22;28312;43.460;11.810;2023-02-08T23:19:17;-3275.40;51.20
42135;DHT22;28312;43.460;11.810;2023-02-08T23:23:21;-3275.50;51.40
42135;DHT22;28312;43.460;11.810;2023-02-08T23:27:24;-3275.50;51.40
42135;DHT22;28312;43.460;11.810;2023-02-08T23:31:28;-3275.50;51.40
42135;DHT22;28312;43.460;11.810;2023-02-08T23:35:38;-3275.50;51.40
42135;DHT22;28312;43.460;11.810;2023-02-08T23:39:43;-3275.50;51.30
42135;DHT22;28312;43.460;11.810;2023-02-08T23:43:47;-3275.50;51.30
42135;DHT22;28312;43.460;11.810;2023-02-08T23:47:51;-3275.40;51.30
42135;DHT22;28312;43.460;11.810;2023-02-08T23:51:55;-3275.40;51.30
42135;DHT22;28312;43.460;11.810;2023-02-08T23:56:22;-3275.40;51.30
